Landivisiau, France

1:38 AM CET on March 07, 2015 (GMT +0100)
Landivisiau Navy | Change Station
CLOSE
Current Station
Airport
Location: Landivisiau,
Elevation: 348 ft
Nearby Weather Stations

Elev 348 ft 48.53 °N, 4.15 °W | Updated 8 minutes ago

Clear
Clear
46 °F
Feels Like 41 °F
N
13
Wind Variable Wind from South

Today
High -- | Low -- °F
--% Chance of Precip.
Yesterday
High -- | Low -- °F
Precip. -- in
7:47 AM 7:09 PM
Full, 99% visible
Pressure 30.39 in
Visibility 6.2 miles
Clouds
Windchill 41 °F
Dew Point 34 °F
Humidity 62%
Rainfall 0.00 in
Snow Depth Not available.
UV Not available.
Pollen Not available.
Air Quality Not available.
Flu Activity Not available.
METAR LFRJ 070030Z AUTO 19011KT 9999 NSC 08/01 Q1029

More Conditions Fewer Conditions

Pressure 30.39 in
Visibility 6.2 miles
Clouds
Windchill 41 °F
Dew Point 34 °F
Humidity 62%
Rainfall 0.00 in
Snow Depth Not available.
UV Not available.
Pollen Not available.
Air Quality Not available.
Flu Activity Not available.
METAR LFRJ 070030Z AUTO 19011KT 9999 NSC 08/01 Q1029

More Conditions Fewer Conditions

10-Day Weather Forecast

Almanac

Astronomy

Mar. 07, 2015 Rise Set
Actual Time
Civil Twilight
Nautical Twilight
Astronomical Twilight
Moon
Length of Visible Light
Length of Day
Tomorrow will be .
, % of the Moon is Illuminated

Today's Extremes

Country Highs Country Lows

Community

WunderPhotos

Upload Photos

1,803,469 photos uploaded!

WunderBlogs® & News

Nearby

Air Quality

  Air Quality AQ Index Pollutant
Not available.

Snow Depth

Station Depth Elevation

Earthquake Activity

City Distance Mag. Time & Date
Minimum magnitude displayed is 2.5.

Coastal Water Temperatures

Place Temperature

Nearby Weather Stations